createdAt,value
2019-04-22T00:01:04.786Z,3.50
2019-04-22T00:03:38.727Z,4.03
2019-04-22T00:06:21.049Z,3.70
2019-04-22T00:08:49.480Z,4.33
2019-04-22T00:11:25.567Z,4.67
2019-04-22T00:13:55.277Z,3.77
2019-04-22T00:16:19.291Z,4.00
2019-04-22T00:19:00.998Z,4.07
2019-04-22T00:21:19.456Z,4.80
2019-04-22T00:23:49.548Z,4.17
2019-04-22T00:26:16.403Z,4.37
2019-04-22T00:28:43.791Z,3.97
2019-04-22T00:31:09.842Z,4.47
2019-04-22T00:33:38.804Z,4.03
2019-04-22T00:36:14.839Z,4.40
2019-04-22T00:38:42.042Z,4.17
2019-04-22T00:41:05.859Z,4.30
2019-04-22T00:43:33.419Z,4.37
2019-04-22T00:46:04.259Z,4.57
2019-04-22T00:48:57.608Z,3.97
2019-04-22T00:53:30.114Z,4.73
2019-04-22T00:56:05.665Z,4.23
2019-04-22T00:58:36.477Z,4.03
2019-04-22T01:01:07.808Z,4.10
2019-04-22T01:03:38.704Z,4.47
2019-04-22T01:06:06.174Z,4.30
2019-04-22T01:08:30.736Z,4.80
2019-04-22T01:11:09.884Z,5.03
2019-04-22T01:13:24.767Z,5.40
2019-04-22T01:15:57.481Z,4.47
2019-04-22T01:18:23.938Z,4.80
2019-04-22T01:21:07.245Z,4.37
2019-04-22T01:23:26.784Z,4.17
2019-04-22T01:25:44.908Z,4.23
2019-04-22T01:28:14.236Z,4.23
2019-04-22T01:30:43.039Z,4.27
2019-04-22T01:33:09.224Z,4.20
2019-04-22T01:35:41.225Z,4.33
2019-04-22T01:38:13.370Z,4.17
2019-04-22T01:40:57.885Z,4.33
2019-04-22T01:43:26.035Z,4.13
2019-04-22T01:45:44.792Z,4.10
2019-04-22T01:48:17.676Z,4.10
2019-04-22T01:50:48.450Z,4.07
2019-04-22T01:53:16.506Z,3.77
2019-04-22T01:55:45.295Z,4.43
2019-04-22T01:58:05.691Z,4.40
2019-04-22T02:00:40.159Z,4.73
2019-04-22T02:03:14.104Z,4.37
2019-04-22T02:05:35.472Z,3.53
2019-04-22T02:08:25.116Z,3.53
2019-04-22T02:10:55.238Z,3.37
2019-04-22T02:13:15.643Z,3.90
2019-04-22T02:15:48.013Z,4.00
2019-04-22T02:18:18.032Z,3.50
2019-04-22T02:20:43.268Z,3.93
2019-04-22T02:25:56.073Z,3.97
2019-04-22T02:28:25.716Z,3.97
2019-04-22T02:31:16.033Z,5.07
2019-04-22T02:33:45.884Z,4.20
2019-04-22T02:36:08.245Z,4.17
2019-04-22T02:38:34.527Z,3.67
2019-04-22T02:41:12.865Z,3.53
2019-04-22T02:43:24.033Z,3.97
2019-04-22T02:46:02.678Z,4.00
2019-04-22T02:48:37.928Z,3.80
2019-04-22T02:50:43.437Z,4.17
2019-04-22T02:53:13.835Z,4.10
2019-04-22T02:55:41.333Z,4.57
2019-04-22T02:58:15.926Z,5.87
2019-04-22T03:00:44.431Z,6.33
2019-04-22T03:03:20.936Z,5.50
2019-04-22T03:05:45.470Z,5.57
2019-04-22T03:08:25.591Z,6.03
2019-04-22T03:10:53.484Z,5.03
2019-04-22T03:13:09.064Z,5.03
2019-04-22T03:15:41.118Z,4.80
2019-04-22T03:20:37.798Z,4.37
2019-04-22T03:23:23.237Z,4.33
2019-04-22T03:27:52.384Z,3.83
2019-04-22T03:30:51.126Z,4.37
2019-04-22T03:35:39.879Z,4.47
2019-04-22T03:40:30.461Z,4.10
2019-04-22T03:47:53.615Z,4.00
2019-04-22T03:52:35.480Z,4.23
2019-04-22T03:55:09.373Z,4.17
2019-04-22T04:04:58.996Z,4.50
2019-04-22T04:07:48.226Z,4.23
2019-04-22T04:10:10.494Z,4.27
2019-04-22T04:12:28.330Z,4.13
2019-04-22T04:17:29.123Z,3.87
2019-04-22T04:22:53.708Z,3.77
2019-04-22T04:35:03.123Z,3.63
2019-04-22T04:37:32.685Z,3.50
2019-04-22T04:40:05.685Z,4.00
2019-04-22T04:42:25.520Z,3.50
2019-04-22T04:45:11.108Z,3.60
2019-04-22T04:47:11.610Z,3.70
2019-04-22T04:52:10.173Z,4.20
2019-04-22T04:59:41.814Z,3.87
2019-04-22T05:07:01.591Z,3.67
2019-04-22T05:12:01.349Z,3.90
2019-04-22T05:14:19.119Z,3.53
2019-04-22T05:16:48.168Z,4.07
2019-04-22T05:19:18.318Z,6.10
2019-04-22T05:21:40.648Z,5.80
2019-04-22T05:24:19.890Z,5.10
2019-04-22T05:26:39.705Z,4.93
2019-04-22T05:29:08.051Z,5.30
2019-04-22T05:31:38.921Z,4.73
2019-04-22T05:34:04.367Z,4.93
2019-04-22T05:36:34.419Z,4.23
2019-04-22T05:39:01.808Z,4.30
2019-04-22T05:41:31.983Z,3.83
2019-04-22T05:43:59.911Z,3.70
2019-04-22T05:46:26.244Z,4.10
2019-04-22T05:48:55.373Z,3.50
2019-04-22T05:51:21.695Z,3.93
2019-04-22T05:53:48.200Z,3.70
2019-04-22T05:56:22.075Z,4.10
2019-04-22T05:58:45.323Z,4.03
2019-04-22T06:03:46.128Z,4.00
2019-04-22T06:06:09.031Z,4.60
2019-04-22T06:08:42.109Z,3.60
2019-04-22T06:11:08.134Z,3.90
2019-04-22T06:13:31.932Z,3.20
2019-04-22T06:16:07.430Z,2.90
2019-04-22T06:18:33.481Z,3.07
2019-04-22T06:21:07.200Z,2.57
2019-04-22T06:23:40.472Z,2.47
2019-04-22T06:28:35.306Z,2.20
2019-04-22T06:31:08.872Z,3.00
2019-04-22T06:33:31.525Z,2.50
2019-04-22T06:35:54.606Z,2.33
2019-04-22T06:40:55.304Z,2.23
2019-04-22T06:43:34.952Z,2.50
2019-04-22T06:45:44.991Z,2.60
2019-04-22T06:48:19.518Z,2.57
2019-04-22T06:53:09.016Z,2.03
2019-04-22T06:55:41.303Z,2.37
2019-04-22T06:58:10.641Z,2.40
2019-04-22T07:05:33.021Z,2.33
2019-04-22T07:08:18.297Z,2.40
2019-04-22T07:10:42.037Z,2.47
2019-04-22T07:13:01.540Z,2.40
2019-04-22T07:18:04.822Z,2.17
2019-04-22T07:20:30.452Z,2.80
2019-04-22T07:23:04.487Z,2.30
2019-04-22T07:25:23.682Z,2.10
2019-04-22T07:33:12.617Z,2.47
2019-04-22T07:35:22.752Z,2.03
2019-04-22T07:38:04.677Z,2.20
2019-04-22T07:40:16.877Z,2.47
2019-04-22T07:42:45.116Z,2.90
2019-04-22T07:45:22.633Z,2.00
2019-04-22T07:47:46.561Z,2.00
2019-04-22T07:50:15.256Z,2.20
2019-04-22T07:52:38.718Z,2.10
2019-04-22T07:55:04.210Z,2.60
2019-04-22T08:00:09.023Z,1.80
2019-04-22T08:02:37.386Z,2.40
2019-04-22T08:05:08.259Z,2.23
2019-04-22T08:07:30.413Z,2.07
2019-04-22T08:12:28.175Z,2.10
2019-04-22T08:14:55.125Z,2.23
2019-04-22T08:17:45.144Z,2.30
2019-04-22T08:19:59.201Z,2.03
2019-04-22T08:22:15.687Z,2.30
2019-04-22T08:24:52.395Z,2.20
2019-04-22T08:27:20.883Z,2.07
2019-04-22T08:29:52.457Z,2.03
2019-04-22T08:32:16.660Z,2.20
2019-04-22T08:34:42.617Z,2.40
2019-04-22T08:37:41.605Z,2.80
2019-04-22T08:39:37.952Z,2.67
2019-04-22T08:42:20.510Z,3.10
2019-04-22T08:47:11.298Z,3.30
2019-04-22T08:49:42.585Z,3.27
2019-04-22T08:52:02.444Z,3.33
2019-04-22T08:54:32.479Z,3.20
2019-04-22T08:56:58.199Z,2.75
2019-04-22T08:59:24.753Z,3.45
2019-04-22T09:01:49.223Z,3.05
2019-04-22T09:04:16.321Z,2.90
2019-04-22T09:07:20.661Z,3.10
2019-04-22T09:12:07.667Z,3.40
2019-04-22T09:14:40.003Z,2.90
2019-04-22T09:17:13.345Z,2.27
2019-04-22T09:19:30.160Z,2.90
2019-04-22T09:22:04.942Z,2.60
2019-04-22T09:24:29.661Z,2.60
2019-04-22T09:27:22.498Z,2.42
2019-04-22T09:32:01.762Z,2.80
2019-04-22T09:34:23.503Z,2.58
2019-04-22T09:37:04.718Z,2.50
2019-04-22T09:39:23.125Z,2.12
2019-04-22T09:44:15.952Z,2.50
2019-04-22T09:46:47.248Z,2.45
2019-04-22T09:49:23.199Z,2.37
2019-04-22T09:51:45.048Z,2.62
2019-04-22T09:54:16.694Z,2.37
2019-04-22T09:56:47.579Z,2.25
2019-04-22T09:59:07.489Z,2.98
2019-04-22T10:01:34.098Z,2.67
2019-04-22T10:04:18.785Z,2.80
2019-04-22T10:07:05.668Z,2.70
2019-04-22T10:11:38.787Z,2.95
2019-04-22T10:14:03.885Z,2.98
2019-04-22T10:16:31.181Z,2.83
2019-04-22T10:19:02.007Z,2.87
2019-04-22T10:21:38.130Z,2.80
2019-04-22T10:23:59.460Z,3.00
2019-04-22T10:26:28.694Z,2.90
2019-04-22T10:29:01.792Z,3.40
2019-04-22T10:31:23.920Z,3.17
2019-04-22T10:33:40.845Z,3.08
2019-04-22T10:35:52.624Z,3.05
2019-04-22T10:38:19.350Z,2.92
2019-04-22T10:40:46.812Z,2.92
2019-04-22T10:43:13.330Z,2.42
2019-04-22T10:45:41.810Z,2.95
2019-04-22T10:48:10.563Z,2.72
2019-04-22T10:50:44.777Z,2.92
2019-04-22T10:53:13.331Z,2.95
2019-04-22T10:55:43.380Z,3.12
2019-04-22T10:58:10.604Z,2.92
2019-04-22T11:00:37.733Z,2.85
2019-04-22T11:03:06.503Z,3.12
2019-04-22T11:05:34.329Z,3.00
2019-04-22T11:08:04.928Z,3.20
2019-04-22T11:10:44.547Z,2.92
2019-04-22T11:12:58.988Z,3.58
2019-04-22T11:15:26.591Z,3.02
2019-04-22T11:17:53.552Z,2.95
2019-04-22T11:20:21.665Z,3.33
2019-04-22T11:22:48.972Z,3.27
2019-04-22T11:25:16.081Z,3.40
2019-04-22T11:27:44.276Z,3.27
2019-04-22T11:30:14.463Z,2.65
2019-04-22T11:32:42.320Z,2.72
2019-04-22T11:35:09.879Z,2.60
2019-04-22T11:37:36.815Z,2.90
2019-04-22T11:40:28.815Z,3.22
2019-04-22T11:42:52.216Z,2.80
2019-04-22T11:45:19.842Z,2.92
2019-04-22T11:47:47.487Z,3.02
2019-04-22T11:50:15.685Z,2.58
2019-04-22T11:52:42.639Z,2.72
2019-04-22T11:55:10.900Z,2.58
2019-04-22T11:57:39.100Z,2.75
2019-04-22T12:00:12.674Z,2.62
2019-04-22T12:02:40.927Z,3.05
2019-04-22T12:05:09.997Z,3.02
2019-04-22T12:07:38.443Z,2.72
2019-04-22T12:10:19.218Z,2.98
2019-04-22T12:12:49.592Z,3.10
2019-04-22T12:15:16.918Z,3.35
2019-04-22T12:17:44.515Z,2.90
2019-04-22T12:20:16.498Z,2.17
2019-04-22T12:22:45.045Z,2.33
2019-04-22T12:25:15.575Z,2.40
2019-04-22T12:27:41.359Z,2.40
2019-04-22T12:30:14.861Z,2.15
2019-04-22T12:32:41.691Z,2.80
2019-04-22T12:35:09.257Z,2.80
2019-04-22T12:37:43.931Z,2.52
2019-04-22T12:40:08.654Z,2.75
2019-04-22T12:42:35.410Z,2.77
2019-04-22T12:45:04.309Z,2.75
2019-04-22T12:47:33.482Z,2.40
2019-04-22T12:50:08.876Z,2.45
2019-04-22T12:52:36.993Z,2.52
2019-04-22T12:54:57.376Z,2.67
2019-04-22T12:57:24.860Z,2.75
2019-04-22T12:59:51.322Z,2.87
2019-04-22T13:02:18.783Z,5.53
2019-04-22T13:04:46.011Z,3.42
2019-04-22T13:07:13.559Z,2.83
2019-04-22T13:09:41.104Z,2.70
2019-04-22T13:12:08.948Z,2.95
2019-04-22T13:14:36.820Z,2.90
2019-04-22T13:17:04.047Z,2.12
2019-04-22T13:19:31.857Z,2.90
2019-04-22T13:21:58.709Z,2.80
2019-04-22T13:24:25.947Z,2.77
2019-04-22T13:26:53.027Z,2.52
2019-04-22T13:29:21.299Z,2.20
2019-04-22T13:31:48.846Z,2.45
2019-04-22T13:34:25.491Z,2.65
2019-04-22T13:36:46.617Z,2.42
2019-04-22T13:39:13.248Z,2.77
2019-04-22T13:41:46.381Z,2.70
2019-04-22T13:44:09.108Z,2.55
2019-04-22T13:46:35.796Z,2.27
2019-04-22T13:52:02.375Z,2.92
2019-04-22T13:54:01.901Z,2.58
2019-04-22T13:56:48.017Z,2.55
2019-04-22T13:59:09.047Z,2.20
2019-04-22T14:01:44.470Z,2.37
2019-04-22T14:04:22.735Z,2.22
2019-04-22T14:06:49.240Z,2.62
2019-04-22T14:09:17.240Z,2.35
2019-04-22T14:11:50.742Z,2.25
2019-04-22T14:14:12.731Z,2.50
2019-04-22T14:16:40.789Z,2.40
2019-04-22T14:19:07.922Z,2.40
2019-04-22T14:21:34.830Z,2.60
2019-04-22T14:24:02.723Z,2.50
2019-04-22T14:26:44.162Z,2.30
2019-04-22T14:28:57.700Z,2.20
2019-04-22T14:31:24.374Z,2.10
2019-04-22T14:33:55.182Z,2.17
2019-04-22T14:36:19.236Z,2.37
2019-04-22T14:38:45.993Z,2.40
2019-04-22T14:41:32.761Z,2.10
2019-04-22T14:44:23.488Z,2.17
2019-04-22T14:46:36.459Z,2.15
2019-04-22T14:48:57.218Z,2.77
2019-04-22T14:51:25.489Z,2.50
2019-04-22T14:53:50.263Z,2.92
2019-04-22T14:56:02.503Z,2.40
2019-04-22T14:58:31.006Z,2.50
2019-04-22T15:00:59.133Z,2.70
2019-04-22T15:03:25.963Z,2.67
2019-04-22T15:05:52.530Z,2.65
2019-04-22T15:08:19.254Z,2.30
2019-04-22T15:10:46.344Z,2.58
2019-04-22T15:13:13.441Z,2.80
2019-04-22T15:15:52.903Z,2.33
2019-04-22T15:18:28.332Z,2.83
2019-04-22T15:21:16.514Z,2.50
2019-04-22T15:23:44.449Z,2.33
2019-04-22T15:26:12.583Z,2.30
2019-04-22T15:28:41.746Z,2.55
2019-04-22T15:31:09.176Z,2.60
2019-04-22T15:33:37.400Z,2.62
2019-04-22T15:36:05.845Z,2.58
2019-04-22T15:38:32.389Z,2.65
2019-04-22T15:40:59.118Z,2.45
2019-04-22T15:43:29.276Z,2.90
2019-04-22T15:45:54.882Z,2.35
2019-04-22T15:48:23.218Z,2.20
2019-04-22T15:50:50.749Z,2.30
2019-04-22T15:53:18.003Z,2.50
2019-04-22T15:55:44.920Z,2.30
2019-04-22T15:58:11.959Z,2.33
2019-04-22T16:00:51.730Z,2.00
2019-04-22T16:03:10.133Z,2.42
2019-04-22T16:05:36.337Z,2.30
2019-04-22T16:08:03.343Z,2.05
2019-04-22T16:10:30.495Z,2.30
2019-04-22T16:13:05.474Z,2.33
2019-04-22T16:15:26.583Z,2.07
2019-04-22T16:17:54.901Z,2.23
2019-04-22T16:20:23.332Z,2.40
2019-04-22T16:23:07.741Z,2.30
2019-04-22T16:25:51.528Z,2.10
2019-04-22T16:28:19.408Z,2.20
2019-04-22T16:30:45.919Z,1.93
2019-04-22T16:33:13.187Z,1.80
2019-04-22T16:35:40.531Z,1.90
2019-04-22T16:38:08.606Z,1.83
2019-04-22T16:40:35.050Z,2.10
2019-04-22T16:43:04.785Z,1.63
2019-04-22T16:45:31.822Z,2.07
2019-04-22T16:47:59.983Z,2.00
2019-04-22T16:50:29.258Z,2.00
2019-04-22T16:52:57.882Z,1.80
2019-04-22T16:55:24.890Z,1.93
2019-04-22T16:57:52.571Z,1.97
2019-04-22T17:00:20.623Z,1.80
2019-04-22T17:03:04.757Z,1.73
2019-04-22T17:05:33.761Z,1.80
2019-04-22T17:08:14.260Z,1.50
2019-04-22T17:10:41.930Z,1.63
2019-04-22T17:13:15.064Z,1.60
2019-04-22T17:15:49.333Z,1.67
2019-04-22T17:18:17.106Z,1.67
2019-04-22T17:20:44.690Z,1.60
2019-04-22T17:23:11.590Z,1.70
2019-04-22T17:25:38.432Z,1.57
2019-04-22T17:28:05.697Z,1.33
2019-04-22T17:30:33.180Z,1.50
2019-04-22T17:33:00.884Z,1.43
2019-04-22T17:35:28.359Z,1.43
2019-04-22T17:38:01.766Z,1.63
2019-04-22T17:40:38.842Z,1.60
2019-04-22T17:43:23.886Z,1.60
2019-04-22T17:45:56.002Z,1.57
2019-04-22T17:48:31.195Z,1.50
2019-04-22T17:51:11.226Z,1.20
2019-04-22T17:53:38.430Z,1.50
2019-04-22T17:56:02.082Z,1.70
2019-04-22T17:58:26.914Z,1.30
2019-04-22T18:00:53.732Z,1.70
2019-04-22T18:03:16.239Z,1.30
2019-04-22T18:05:39.135Z,1.90
2019-04-22T18:08:17.443Z,1.43
2019-04-22T18:10:42.293Z,1.33
2019-04-22T18:13:28.215Z,1.17
2019-04-22T18:15:43.863Z,1.13
2019-04-22T18:18:18.647Z,1.10
2019-04-22T18:20:38.147Z,1.60
2019-04-22T18:22:57.006Z,1.30
2019-04-22T18:25:34.156Z,1.20
2019-04-22T18:28:11.585Z,1.47
2019-04-22T18:30:29.614Z,1.47
2019-04-22T18:33:02.727Z,1.27
2019-04-22T18:35:32.358Z,1.43
2019-04-22T18:38:05.087Z,1.30
2019-04-22T18:40:30.560Z,1.30
2019-04-22T18:43:06.281Z,1.00
2019-04-22T18:45:48.796Z,1.20
2019-04-22T18:47:52.136Z,1.07
2019-04-22T18:50:37.007Z,1.00
2019-04-22T18:53:07.038Z,1.10
2019-04-22T18:55:30.987Z,1.23
2019-04-22T18:58:02.854Z,1.20
2019-04-22T19:00:21.309Z,1.00
2019-04-22T19:02:56.937Z,1.10
2019-04-22T19:05:30.231Z,1.20
2019-04-22T19:08:16.763Z,1.10
2019-04-22T19:10:43.095Z,1.13
2019-04-22T19:13:34.910Z,1.20
2019-04-22T19:15:38.413Z,1.10
2019-04-22T19:18:10.745Z,1.20
2019-04-22T19:20:37.444Z,1.10
2019-04-22T19:23:10.603Z,1.13
2019-04-22T19:25:23.970Z,1.00
2019-04-22T19:28:10.135Z,1.10
2019-04-22T19:30:36.937Z,1.00
2019-04-22T19:33:06.142Z,1.20
2019-04-22T19:35:26.670Z,1.20
2019-04-22T19:37:53.893Z,1.30
2019-04-22T19:40:52.915Z,1.00
2019-04-22T19:43:12.120Z,1.10
2019-04-22T19:45:32.696Z,1.23
2019-04-22T19:48:14.297Z,0.90
2019-04-22T19:50:35.138Z,1.00
2019-04-22T19:53:05.023Z,1.33
2019-04-22T19:55:30.929Z,1.00
2019-04-22T19:57:59.613Z,0.90
2019-04-22T20:00:37.442Z,1.10
2019-04-22T20:03:40.027Z,1.03
2019-04-22T20:06:05.650Z,1.50
2019-04-22T20:08:39.579Z,1.03
2019-04-22T20:11:07.097Z,1.10
2019-04-22T20:13:37.037Z,1.03
2019-04-22T20:15:50.594Z,1.17
2019-04-22T20:18:37.339Z,1.17
2019-04-22T20:20:58.596Z,1.10
2019-04-22T20:23:21.727Z,1.10
2019-04-22T20:25:48.378Z,1.20
2019-04-22T20:28:24.195Z,1.00
2019-04-22T20:30:50.575Z,1.10
2019-04-22T20:33:19.037Z,0.90
2019-04-22T20:35:51.957Z,1.00
2019-04-22T20:38:16.435Z,1.00
2019-04-22T20:40:44.273Z,1.20
2019-04-22T20:43:17.835Z,0.73
2019-04-22T20:45:39.723Z,0.90
2019-04-22T20:47:57.338Z,0.90
2019-04-22T20:50:41.362Z,1.00
2019-04-22T20:53:11.563Z,0.80
2019-04-22T20:55:32.315Z,1.00
2019-04-22T20:58:10.213Z,0.73
2019-04-22T21:00:27.433Z,0.90
2019-04-22T21:02:53.939Z,0.90
2019-04-22T21:05:24.917Z,1.17
2019-04-22T21:08:09.536Z,0.87
2019-04-22T21:10:22.505Z,1.00
2019-04-22T21:12:55.898Z,1.00
2019-04-22T21:15:32.688Z,0.97
2019-04-22T21:17:54.471Z,1.00
2019-04-22T21:20:34.448Z,0.70
2019-04-22T21:22:58.059Z,1.00
2019-04-22T21:25:18.210Z,0.73
2019-04-22T21:27:56.592Z,0.63
2019-04-22T21:30:29.241Z,0.80
2019-04-22T21:32:49.519Z,1.07
2019-04-22T21:35:35.221Z,1.00
2019-04-22T21:37:55.811Z,0.80
2019-04-22T21:40:20.074Z,0.80
2019-04-22T21:42:55.917Z,0.90
2019-04-22T21:45:07.188Z,0.80
2019-04-22T21:47:51.766Z,1.00
2019-04-22T21:50:28.970Z,1.10
2019-04-22T21:52:40.448Z,0.87
2019-04-22T21:55:11.697Z,0.70
2019-04-22T21:58:01.548Z,1.00
2019-04-22T22:00:31.622Z,0.80
2019-04-22T22:02:47.424Z,1.00
2019-04-22T22:05:12.494Z,0.90
2019-04-22T22:07:28.609Z,0.73
2019-04-22T22:10:09.345Z,0.83
2019-04-22T22:12:42.281Z,0.90
2019-04-22T22:15:07.196Z,1.00
2019-04-22T22:17:30.769Z,1.10
2019-04-22T22:20:02.817Z,0.80
2019-04-22T22:22:46.619Z,0.70
2019-04-22T22:25:04.560Z,0.73
2019-04-22T22:27:31.184Z,0.83
2019-04-22T22:30:07.869Z,0.53
2019-04-22T22:32:30.416Z,0.60
2019-04-22T22:34:58.697Z,0.70
2019-04-22T22:37:14.383Z,0.67
2019-04-22T22:39:42.756Z,0.80
2019-04-22T22:42:01.803Z,0.83
2019-04-22T22:44:36.452Z,0.60
2019-04-22T22:47:15.811Z,0.80
2019-04-22T22:49:52.080Z,0.73
2019-04-22T22:52:40.914Z,0.70
2019-04-22T22:54:46.471Z,1.00
2019-04-22T22:57:17.821Z,0.80
2019-04-22T22:59:38.246Z,0.80
2019-04-22T23:02:08.057Z,0.83
2019-04-22T23:04:39.913Z,1.03
2019-04-22T23:07:13.017Z,0.70
2019-04-22T23:09:34.969Z,0.97
2019-04-22T23:12:10.329Z,0.80
2019-04-22T23:14:35.028Z,1.13
2019-04-22T23:16:46.784Z,0.70
2019-04-22T23:19:06.809Z,0.80
2019-04-22T23:21:39.659Z,0.80
2019-04-22T23:24:23.829Z,0.97
2019-04-22T23:26:54.076Z,0.97
2019-04-22T23:29:26.219Z,1.10
2019-04-22T23:32:00.628Z,0.90
2019-04-22T23:34:24.964Z,1.20
2019-04-22T23:37:11.813Z,0.93
2019-04-22T23:39:56.436Z,1.03
2019-04-22T23:42:20.890Z,0.90
2019-04-22T23:44:42.240Z,1.20
2019-04-22T23:47:06.107Z,0.90
2019-04-22T23:49:32.667Z,0.90
2019-04-22T23:52:10.105Z,1.03
2019-04-22T23:54:43.553Z,0.90
2019-04-22T23:57:08.926Z,1.00
2019-04-22T23:59:49.499Z,1.10
